Time;durP1;ratioP1;P1;durP2;ratioP2;P2;SDS_P1;SDS_P2;PMS_P1;PMS_P2;Temp;Humidity;BMP_temperature;BMP_pressure;BME280_temperature;BME280_humidity;BME280_pressure;Samples;Min_cycle;Max_cycle;Signal;HPM_P1;HPM_P2
2022/03/27 00:02:18;;;;;;;14.38;9.60;;;;;;;;;;5007846;28;98573;-75
2022/03/27 00:04:44;;;;;;;12.95;10.63;;;;;;;;;;5011210;28;100219;-75
2022/03/27 00:07:11;;;;;;;10.63;9.63;;;;;;;;;;5006034;28;99127;-76
2022/03/27 00:09:37;;;;;;;12.15;11.18;;;;;;;;;;5008355;28;99094;-75
2022/03/27 00:12:04;;;;;;;10.05;9.05;;;;;;;;;;5006161;28;100404;-75
2022/03/27 00:14:31;;;;;;;11.13;10.20;;;;;;;;;;5008462;28;98966;-75
2022/03/27 00:16:57;;;;;;;10.50;9.32;;;;;;;;;;5007450;28;99111;-75
2022/03/27 00:19:24;;;;;;;11.77;10.68;;;;;;;;;;5006867;28;99367;-75
2022/03/27 00:21:51;;;;;;;9.10;8.15;;;;;;;;;;5007715;28;99537;-75
2022/03/27 00:24:17;;;;;;;10.90;9.30;;;;;;;;;;5007087;28;100540;-75
2022/03/27 00:26:44;;;;;;;9.40;8.57;;;;;;;;;;5010853;28;100802;-75
2022/03/27 00:29:10;;;;;;;10.18;9.38;;;;;;;;;;5006698;28;98955;-75
2022/03/27 00:31:38;;;;;;;10.50;9.60;;;;;;;;;;5008521;28;99004;-75
2022/03/27 00:34:05;;;;;;;9.63;8.80;;;;;;;;;;5007094;28;98599;-75
2022/03/27 00:36:31;;;;;;;9.52;8.68;;;;;;;;;;5008346;28;100043;-75
2022/03/27 00:38:58;;;;;;;9.30;8.60;;;;;;;;;;5007033;28;98764;-75
2022/03/27 00:41:25;;;;;;;10.60;7.70;;;;;;;;;;5007596;28;98623;-75
2022/03/27 00:43:51;;;;;;;11.13;10.18;;;;;;;;;;5007927;28;100174;-76
2022/03/27 00:46:18;;;;;;;10.38;9.43;;;;;;;;;;5006655;28;100202;-76
2022/03/27 00:48:44;;;;;;;12.02;10.45;;;;;;;;;;5009266;28;98525;-76
2022/03/27 00:51:11;;;;;;;10.57;9.55;;;;;;;;;;5007151;28;99681;-75
2022/03/27 00:53:37;;;;;;;12.30;11.07;;;;;;;;;;5005633;28;98821;-75
2022/03/27 00:56:03;;;;;;;13.23;11.88;;;;;;;;;;5005409;28;99896;-75
2022/03/27 00:58:30;;;;;;;20.98;12.18;;;;;;;;;;5006993;28;100209;-75
2022/03/27 01:01:03;;;;;;;15.48;12.93;;;;;;;;;;5006715;28;98607;-75
2022/03/27 01:03:31;;;;;;;15.95;12.82;;;;;;;;;;5008259;28;100023;-75
2022/03/27 01:05:58;;;;;;;15.57;13.50;;;;;;;;;;5009552;28;99759;-75
2022/03/27 01:11:12;;;;;;;15.40;12.77;;;;;;;;;;5012280;28;100213;-75
2022/03/27 01:13:40;;;;;;;14.20;12.77;;;;;;;;;;5010032;28;98525;-75
2022/03/27 01:16:12;;;;;;;14.32;12.75;;;;;;;;;;5009125;28;100234;-75
2022/03/27 01:18:39;;;;;;;13.93;12.53;;;;;;;;;;5010055;28;99412;-75
2022/03/27 01:21:07;;;;;;;14.98;11.38;;;;;;;;;;5009000;28;99310;-75
2022/03/27 01:23:34;;;;;;;14.95;12.38;;;;;;;;;;5009271;28;100042;-75
2022/03/27 01:26:00;;;;;;;14.45;11.10;;;;;;;;;;5010003;28;99697;-75
2022/03/27 01:28:27;;;;;;;11.52;10.43;;;;;;;;;;5010850;28;97838;-75
2022/03/27 01:30:53;;;;;;;12.60;11.40;;;;;;;;;;5011639;28;99129;-76
2022/03/27 01:33:20;;;;;;;12.88;11.68;;;;;;;;;;5010387;28;98507;-76
2022/03/27 01:35:46;;;;;;;14.07;10.65;;;;;;;;;;5009344;28;100356;-75
2022/03/27 01:38:12;;;;;;;11.98;10.55;;;;;;;;;;5009223;28;100314;-75
2022/03/27 01:40:39;;;;;;;13.30;11.90;;;;;;;;;;5009722;28;99507;-76
2022/03/27 01:43:05;;;;;;;14.10;12.07;;;;;;;;;;5010376;28;100025;-75
2022/03/27 01:45:31;;;;;;;12.77;10.65;;;;;;;;;;5008228;28;99567;-75
2022/03/27 01:47:58;;;;;;;12.10;10.90;;;;;;;;;;5010479;28;98520;-75
2022/03/27 01:50:24;;;;;;;14.93;13.15;;;;;;;;;;5009346;28;100148;-75
2022/03/27 01:52:51;;;;;;;14.15;12.65;;;;;;;;;;5012969;28;99899;-75
2022/03/27 01:55:17;;;;;;;17.55;12.95;;;;;;;;;;5009198;28;99903;-75
2022/03/27 01:57:44;;;;;;;17.00;12.82;;;;;;;;;;5009385;28;100176;-75
2022/03/27 02:00:11;;;;;;;18.23;11.43;;;;;;;;;;5008426;28;99430;-75
2022/03/27 02:02:40;;;;;;;16.50;13.60;;;;;;;;;;5010244;28;99390;-75
2022/03/27 02:05:07;;;;;;;13.32;11.77;;;;;;;;;;5008419;28;99330;-75
2022/03/27 02:07:37;;;;;;;15.10;13.48;;;;;;;;;;5009493;28;98488;-75
2022/03/27 02:10:04;;;;;;;17.77;12.98;;;;;;;;;;5009000;28;100071;-75
2022/03/27 02:12:34;;;;;;;16.13;13.40;;;;;;;;;;5007551;28;101005;-75
2022/03/27 02:15:04;;;;;;;16.85;13.80;;;;;;;;;;5011641;28;98513;-75
2022/03/27 02:17:31;;;;;;;13.85;12.35;;;;;;;;;;5008159;28;99615;-75
2022/03/27 02:19:58;;;;;;;14.00;12.57;;;;;;;;;;5007854;28;98997;-75
2022/03/27 02:22:24;;;;;;;14.07;12.57;;;;;;;;;;5008349;28;99408;-75
2022/03/27 02:24:51;;;;;;;12.77;11.50;;;;;;;;;;5008711;28;100568;-75
2022/03/27 02:27:17;;;;;;;13.32;11.95;;;;;;;;;;5008654;28;98557;-75
2022/03/27 02:29:43;;;;;;;14.02;12.10;;;;;;;;;;5008782;28;100206;-75
2022/03/27 02:32:10;;;;;;;18.38;13.98;;;;;;;;;;5009119;28;99635;-75
2022/03/27 02:34:36;;;;;;;16.30;13.77;;;;;;;;;;5008594;28;98526;-75
2022/03/27 02:37:03;;;;;;;16.90;13.98;;;;;;;;;;5012402;28;99927;-75
2022/03/27 02:39:29;;;;;;;16.25;12.73;;;;;;;;;;5008141;28;98542;-75
2022/03/27 02:41:56;;;;;;;12.63;10.65;;;;;;;;;;5008857;28;100360;-75
2022/03/27 02:44:22;;;;;;;15.95;12.75;;;;;;;;;;5007138;28;99637;-75
2022/03/27 02:46:50;;;;;;;15.98;13.27;;;;;;;;;;5008856;28;99139;-75
2022/03/27 02:49:16;;;;;;;15.43;11.88;;;;;;;;;;5008029;28;99843;-75
2022/03/27 02:51:45;;;;;;;16.88;9.95;;;;;;;;;;5008363;28;100513;-75
2022/03/27 02:54:12;;;;;;;13.95;11.85;;;;;;;;;;5007624;28;98628;-75
2022/03/27 02:56:39;;;;;;;13.38;11.48;;;;;;;;;;5009237;28;99162;-75
2022/03/27 02:59:05;;;;;;;17.40;12.20;;;;;;;;;;5011572;28;100211;-75
2022/03/27 03:01:32;;;;;;;11.82;10.57;;;;;;;;;;5007591;28;99984;-75
2022/03/27 03:03:59;;;;;;;12.05;10.20;;;;;;;;;;5007742;28;100304;-75
2022/03/27 03:06:25;;;;;;;14.25;11.45;;;;;;;;;;5009411;28;97777;-75
2022/03/27 03:08:52;;;;;;;15.13;12.02;;;;;;;;;;5007390;28;98941;-75
2022/03/27 03:11:20;;;;;;;15.57;11.27;;;;;;;;;;5006622;28;100347;-75
2022/03/27 03:13:47;;;;;;;13.15;11.00;;;;;;;;;;5007814;28;99239;-75
2022/03/27 03:16:14;;;;;;;14.98;11.68;;;;;;;;;;5005891;28;100277;-75
2022/03/27 03:18:42;;;;;;;12.93;10.57;;;;;;;;;;5008641;28;100166;-75
2022/03/27 03:21:08;;;;;;;16.77;11.98;;;;;;;;;;5011130;28;98775;-75
2022/03/27 03:23:36;;;;;;;16.63;12.77;;;;;;;;;;5007548;28;100628;-75
2022/03/27 03:26:04;;;;;;;13.65;11.57;;;;;;;;;;5008174;28;98589;-75
2022/03/27 03:28:33;;;;;;;11.50;10.10;;;;;;;;;;5008537;28;100428;-75
2022/03/27 03:31:00;;;;;;;13.73;10.93;;;;;;;;;;5007633;28;98896;-75
2022/03/27 03:33:26;;;;;;;13.57;11.82;;;;;;;;;;5007691;28;98600;-75
2022/03/27 03:35:53;;;;;;;11.32;10.13;;;;;;;;;;5007311;28;98611;-75
2022/03/27 03:38:19;;;;;;;9.23;8.23;;;;;;;;;;5005689;28;100982;-75
2022/03/27 03:40:45;;;;;;;12.65;10.90;;;;;;;;;;5011440;28;98514;-75
2022/03/27 03:43:12;;;;;;;16.08;11.65;;;;;;;;;;5006391;28;100709;-75
2022/03/27 03:45:39;;;;;;;14.02;10.57;;;;;;;;;;5007169;28;99433;-75
2022/03/27 03:48:05;;;;;;;14.82;11.55;;;;;;;;;;5007458;28;99467;-75
2022/03/27 03:50:35;;;;;;;16.05;11.38;;;;;;;;;;5005669;28;99512;-75
2022/03/27 03:53:02;;;;;;;12.70;10.90;;;;;;;;;;5004089;28;99558;-74
2022/03/27 03:55:29;;;;;;;10.40;9.35;;;;;;;;;;5008509;28;99091;-75
2022/03/27 03:57:56;;;;;;;12.23;10.75;;;;;;;;;;5007474;28;101814;-75
2022/03/27 04:00:23;;;;;;;13.27;11.98;;;;;;;;;;5007543;28;99398;-75
2022/03/27 04:02:49;;;;;;;14.52;10.95;;;;;;;;;;5010891;28;100157;-75
2022/03/27 04:05:16;;;;;;;13.32;11.27;;;;;;;;;;5007319;28;98624;-75
2022/03/27 04:07:43;;;;;;;11.43;10.23;;;;;;;;;;5007673;28;100083;-75
2022/03/27 04:10:09;;;;;;;14.30;11.27;;;;;;;;;;5007603;28;100483;-75
2022/03/27 04:12:36;;;;;;;12.20;11.00;;;;;;;;;;5005817;28;98631;-75
2022/03/27 04:15:02;;;;;;;12.93;10.93;;;;;;;;;;5008223;28;99252;-75
2022/03/27 04:17:29;;;;;;;12.38;10.98;;;;;;;;;;5005622;28;100309;-74
2022/03/27 04:19:56;;;;;;;12.13;10.57;;;;;;;;;;5007970;28;97949;-74
2022/03/27 04:22:22;;;;;;;12.27;11.07;;;;;;;;;;5006527;28;100035;-74
2022/03/27 04:24:48;;;;;;;12.27;11.00;;;;;;;;;;5011364;28;99270;-74
2022/03/27 04:27:15;;;;;;;12.02;10.73;;;;;;;;;;5006056;28;99308;-74
2022/03/27 04:29:42;;;;;;;12.13;10.52;;;;;;;;;;5007981;28;99365;-74
2022/03/27 04:32:08;;;;;;;12.35;11.18;;;;;;;;;;5007206;28;98561;-75
2022/03/27 04:34:34;;;;;;;10.68;9.57;;;;;;;;;;5007291;28;99137;-75
2022/03/27 04:37:03;;;;;;;11.93;10.63;;;;;;;;;;5007494;28;100479;-75
2022/03/27 04:39:29;;;;;;;12.10;10.82;;;;;;;;;;5009702;28;98725;-75
2022/03/27 04:41:55;;;;;;;11.70;10.50;;;;;;;;;;5010675;28;100111;-75
2022/03/27 04:44:22;;;;;;;11.65;10.45;;;;;;;;;;5011244;28;99875;-75
2022/03/27 04:46:48;;;;;;;10.93;9.98;;;;;;;;;;5013052;28;99046;-75
2022/03/27 04:49:15;;;;;;;11.82;10.68;;;;;;;;;;5010525;28;99497;-74
2022/03/27 04:51:41;;;;;;;10.27;9.27;;;;;;;;;;5009963;28;99751;-74
2022/03/27 04:54:07;;;;;;;12.40;10.18;;;;;;;;;;5010542;28;101137;-75
2022/03/27 04:56:34;;;;;;;11.80;10.70;;;;;;;;;;5008845;28;100670;-74
2022/03/27 04:59:00;;;;;;;11.38;10.15;;;;;;;;;;5011283;28;98994;-75
2022/03/27 05:01:27;;;;;;;14.82;10.70;;;;;;;;;;5008371;28;99460;-75
2022/03/27 05:03:53;;;;;;;12.32;11.13;;;;;;;;;;5010711;28;100617;-74
2022/03/27 05:06:20;;;;;;;11.27;10.20;;;;;;;;;;5009901;28;98897;-74
2022/03/27 05:08:46;;;;;;;11.43;9.63;;;;;;;;;;5013220;28;100313;-74
2022/03/27 05:11:13;;;;;;;11.65;10.45;;;;;;;;;;5010512;28;98617;-75
2022/03/27 05:13:39;;;;;;;12.63;9.70;;;;;;;;;;5011019;28;99841;-75
2022/03/27 05:16:05;;;;;;;11.15;10.15;;;;;;;;;;5009349;28;100224;-74
2022/03/27 05:18:32;;;;;;;10.25;9.25;;;;;;;;;;5010828;28;98761;-74
2022/03/27 05:20:58;;;;;;;11.45;10.35;;;;;;;;;;5010684;28;99431;-74
2022/03/27 05:23:25;;;;;;;12.63;9.70;;;;;;;;;;5008941;28;100516;-75
2022/03/27 05:25:52;;;;;;;10.60;9.50;;;;;;;;;;5010537;28;99188;-74
2022/03/27 05:28:21;;;;;;;11.15;10.05;;;;;;;;;;5013724;28;100282;-74
2022/03/27 05:30:48;;;;;;;10.20;9.27;;;;;;;;;;5008953;28;98937;-74
2022/03/27 05:33:14;;;;;;;9.55;8.57;;;;;;;;;;5009734;28;99950;-74
2022/03/27 05:35:41;;;;;;;13.43;10.40;;;;;;;;;;5009108;28;100255;-74
2022/03/27 05:38:07;;;;;;;10.40;9.43;;;;;;;;;;5009482;28;98658;-74
2022/03/27 05:40:34;;;;;;;10.05;8.90;;;;;;;;;;5009281;28;100210;-74
2022/03/27 05:43:00;;;;;;;10.73;9.77;;;;;;;;;;5009073;28;99520;-74
2022/03/27 05:45:27;;;;;;;10.70;9.60;;;;;;;;;;5010931;28;98496;-74
2022/03/27 05:47:54;;;;;;;11.18;9.48;;;;;;;;;;5010382;28;99117;-75
2022/03/27 05:50:22;;;;;;;10.85;9.85;;;;;;;;;;5011725;28;100331;-75
2022/03/27 05:52:52;;;;;;;11.57;10.38;;;;;;;;;;5010209;28;100484;-74
2022/03/27 05:55:18;;;;;;;10.38;8.68;;;;;;;;;;5009556;28;100316;-74
2022/03/27 05:57:45;;;;;;;11.20;9.55;;;;;;;;;;5009733;28;97781;-74
2022/03/27 06:00:12;;;;;;;9.60;8.80;;;;;;;;;;5010698;28;98657;-75
2022/03/27 06:02:43;;;;;;;10.75;9.65;;;;;;;;;;5009537;28;100050;-74
2022/03/27 06:05:09;;;;;;;10.15;9.20;;;;;;;;;;5009378;28;99478;-75
2022/03/27 06:07:45;;;;;;;10.32;9.23;;;;;;;;;;5009668;28;99640;-73
2022/03/27 06:10:13;;;;;;;9.60;8.77;;;;;;;;;;5006277;28;99295;-75
2022/03/27 06:12:39;;;;;;;12.75;9.60;;;;;;;;;;5012784;28;99273;-74
2022/03/27 06:15:06;;;;;;;11.63;10.02;;;;;;;;;;5009565;28;99336;-75
2022/03/27 06:17:40;;;;;;;10.38;9.32;;;;;;;;;;5009667;28;98529;-74
2022/03/27 06:20:07;;;;;;;10.85;9.77;;;;;;;;;;5009408;28;99410;-75
2022/03/27 06:22:33;;;;;;;9.60;8.75;;;;;;;;;;5009229;28;98550;-75
2022/03/27 06:25:00;;;;;;;10.18;9.18;;;;;;;;;;5009449;28;98566;-75
2022/03/27 06:27:27;;;;;;;10.30;9.38;;;;;;;;;;5009404;28;99883;-75
2022/03/27 06:29:53;;;;;;;11.77;9.65;;;;;;;;;;5009698;28;100870;-75
2022/03/27 06:32:20;;;;;;;9.95;9.05;;;;;;;;;;5007731;28;98539;-74
2022/03/27 06:34:46;;;;;;;10.00;9.05;;;;;;;;;;5013552;28;100169;-75
2022/03/27 06:37:12;;;;;;;10.45;8.88;;;;;;;;;;5008719;28;98495;-75
2022/03/27 06:39:39;;;;;;;10.90;9.10;;;;;;;;;;5009826;28;100053;-75
2022/03/27 06:42:05;;;;;;;9.60;8.70;;;;;;;;;;5008804;28;99655;-75
2022/03/27 06:44:32;;;;;;;10.27;8.98;;;;;;;;;;5010317;28;98497;-75
2022/03/27 06:46:58;;;;;;;10.70;9.10;;;;;;;;;;5008498;28;99985;-75
2022/03/27 06:49:27;;;;;;;10.18;9.18;;;;;;;;;;5008888;28;99374;-75
2022/03/27 06:51:54;;;;;;;9.75;8.77;;;;;;;;;;5008628;28;98500;-75
2022/03/27 06:54:21;;;;;;;9.00;8.20;;;;;;;;;;5006436;28;100418;-75
2022/03/27 06:56:47;;;;;;;10.43;9.43;;;;;;;;;;5012140;28;100254;-74
2022/03/27 06:59:13;;;;;;;10.60;9.27;;;;;;;;;;5002822;28;99417;-75
2022/03/27 07:04:25;;;;;;;9.25;8.00;;;;;;;;;;5010337;27;98623;-75
2022/03/27 07:06:51;;;;;;;8.45;7.65;;;;;;;;;;5007496;28;99882;-74
2022/03/27 07:09:18;;;;;;;9.82;8.80;;;;;;;;;;5008542;28;100265;-74
2022/03/27 07:11:46;;;;;;;9.75;8.60;;;;;;;;;;4999845;28;97898;-74
2022/03/27 07:14:13;;;;;;;10.25;9.35;;;;;;;;;;5002288;28;98954;-75
2022/03/27 07:16:40;;;;;;;12.82;9.98;;;;;;;;;;5008431;28;99440;-75
2022/03/27 07:19:08;;;;;;;10.38;8.63;;;;;;;;;;5011128;28;99215;-75
2022/03/27 07:21:34;;;;;;;10.23;9.27;;;;;;;;;;5007459;28;100331;-75
2022/03/27 07:24:01;;;;;;;10.30;8.95;;;;;;;;;;5009023;28;99161;-75
2022/03/27 07:26:27;;;;;;;10.13;9.07;;;;;;;;;;5009311;28;100373;-75
2022/03/27 07:28:54;;;;;;;11.50;9.85;;;;;;;;;;5007757;28;100363;-75
2022/03/27 07:31:20;;;;;;;9.82;8.93;;;;;;;;;;5008412;28;100160;-75
2022/03/27 07:33:47;;;;;;;8.93;7.65;;;;;;;;;;5008968;28;100014;-75
2022/03/27 07:36:13;;;;;;;9.32;8.52;;;;;;;;;;5008998;28;99506;-75
2022/03/27 07:38:39;;;;;;;10.48;9.48;;;;;;;;;;5011874;28;98513;-75
2022/03/27 07:41:06;;;;;;;9.18;8.45;;;;;;;;;;5007842;28;100407;-75
2022/03/27 07:43:32;;;;;;;9.43;8.38;;;;;;;;;;5008035;28;99298;-75
2022/03/27 07:45:59;;;;;;;9.35;8.43;;;;;;;;;;5007344;28;100936;-75
2022/03/27 07:48:26;;;;;;;10.23;9.23;;;;;;;;;;5008802;28;99399;-81
2022/03/27 07:50:56;;;;;;;11.00;8.55;;;;;;;;;;5001899;28;99734;-76
2022/03/27 07:53:22;;;;;;;11.23;8.90;;;;;;;;;;5007169;28;100876;-75
2022/03/27 07:55:49;;;;;;;9.15;8.25;;;;;;;;;;5006016;28;99914;-75
2022/03/27 07:58:15;;;;;;;13.50;8.38;;;;;;;;;;4996327;28;100077;-75
2022/03/27 08:00:42;;;;;;;9.70;8.75;;;;;;;;;;4995633;28;100045;-72
2022/03/27 08:03:08;;;;;;;8.90;8.00;;;;;;;;;;4993615;28;100322;-75
2022/03/27 08:05:35;;;;;;;9.45;7.88;;;;;;;;;;4993119;28;100409;-75
2022/03/27 08:08:02;;;;;;;11.00;8.43;;;;;;;;;;4996509;28;101027;-75
2022/03/27 08:10:28;;;;;;;9.77;8.77;;;;;;;;;;5005942;28;98535;-76
2022/03/27 08:12:54;;;;;;;9.38;8.48;;;;;;;;;;5007371;27;100736;-76
2022/03/27 08:15:21;;;;;;;8.60;7.80;;;;;;;;;;5008008;28;100632;-76
2022/03/27 08:17:51;;;;;;;5.60;5.13;;;;;;;;;;5008123;28;98557;-76
2022/03/27 08:20:18;;;;;;;8.13;7.32;;;;;;;;;;5005384;28;99870;-75
2022/03/27 08:22:44;;;;;;;7.38;5.95;;;;;;;;;;5011822;28;100141;-76
2022/03/27 08:26:55;;;;;;;9.60;7.80;;;;;;;;;;5005755;28;99270;-76
2022/03/27 08:27:57;;;;;;;7.43;6.63;;;;;;;;;;5006694;28;100634;-77
2022/03/27 08:30:23;;;;;;;11.13;8.43;;;;;;;;;;5005240;28;98621;-76
2022/03/27 08:32:50;;;;;;;9.48;6.60;;;;;;;;;;4997381;28;99866;-76
2022/03/27 08:35:16;;;;;;;8.35;7.30;;;;;;;;;;5007477;28;100117;-78
2022/03/27 08:37:42;;;;;;;8.20;7.40;;;;;;;;;;5008344;28;99581;-75
2022/03/27 08:40:09;;;;;;;10.77;7.43;;;;;;;;;;5007602;28;98952;-75
2022/03/27 08:42:35;;;;;;;8.50;7.63;;;;;;;;;;5008295;28;100471;-75
2022/03/27 08:45:02;;;;;;;7.97;7.25;;;;;;;;;;5011990;28;98556;-75
2022/03/27 08:47:28;;;;;;;7.68;6.97;;;;;;;;;;5007136;28;100011;-75
2022/03/27 08:50:11;;;;;;;6.97;6.32;;;;;;;;;;5009352;28;97791;-76
2022/03/27 08:52:48;;;;;;;8.25;6.63;;;;;;;;;;5007735;28;99566;-76
2022/03/27 08:55:19;;;;;;;7.45;6.03;;;;;;;;;;5007679;28;100281;-76
2022/03/27 08:57:48;;;;;;;7.60;6.80;;;;;;;;;;5007919;28;99286;-76
2022/03/27 09:00:15;;;;;;;7.55;6.18;;;;;;;;;;5006993;28;100638;-76
2022/03/27 09:02:41;;;;;;;7.78;6.60;;;;;;;;;;5007715;28;100268;-76
2022/03/27 09:05:08;;;;;;;7.75;5.70;;;;;;;;;;5008302;28;98509;-76
2022/03/27 09:07:34;;;;;;;9.57;5.30;;;;;;;;;;5010048;28;98903;-76
2022/03/27 09:10:05;;;;;;;5.88;5.32;;;;;;;;;;5008646;28;99101;-76
2022/03/27 09:12:32;;;;;;;7.18;4.95;;;;;;;;;;5007990;28;99973;-76
2022/03/27 09:14:59;;;;;;;6.82;6.03;;;;;;;;;;5005691;28;99663;-76
2022/03/27 09:17:26;;;;;;;6.68;6.07;;;;;;;;;;5007981;28;98578;-76
2022/03/27 09:19:52;;;;;;;7.70;5.82;;;;;;;;;;5008566;28;99147;-76
2022/03/27 09:22:21;;;;;;;10.35;6.00;;;;;;;;;;5006062;28;100226;-76
2022/03/27 09:24:58;;;;;;;10.05;6.20;;;;;;;;;;5009662;28;98503;-76
2022/03/27 09:27:29;;;;;;;6.53;5.55;;;;;;;;;;5011388;28;100094;-76
2022/03/27 09:29:58;;;;;;;6.65;6.00;;;;;;;;;;5014015;28;99287;-76
2022/03/27 09:32:31;;;;;;;13.73;6.68;;;;;;;;;;5010743;28;100034;-76
2022/03/27 09:34:59;;;;;;;6.75;5.50;;;;;;;;;;5010192;28;100518;-76
2022/03/27 09:37:29;;;;;;;8.00;6.22;;;;;;;;;;5011190;28;98635;-76
2022/03/27 09:39:56;;;;;;;8.10;5.85;;;;;;;;;;5011800;28;99895;-76
2022/03/27 09:42:24;;;;;;;7.47;5.80;;;;;;;;;;5009789;28;99841;-76
2022/03/27 09:45:08;;;;;;;6.72;5.82;;;;;;;;;;5011074;28;98509;-76
2022/03/27 09:47:34;;;;;;;6.07;5.43;;;;;;;;;;5010669;28;99255;-76
2022/03/27 09:50:01;;;;;;;6.13;5.53;;;;;;;;;;5013414;28;100576;-76
2022/03/27 09:52:27;;;;;;;7.78;5.88;;;;;;;;;;5010607;28;100305;-76
2022/03/27 09:54:55;;;;;;;8.27;5.78;;;;;;;;;;5010898;28;100355;-76
2022/03/27 09:57:26;;;;;;;8.57;5.18;;;;;;;;;;5010037;28;98850;-76
2022/03/27 09:59:53;;;;;;;5.90;3.45;;;;;;;;;;5011000;28;100228;-76
2022/03/27 10:02:22;;;;;;;4.97;4.40;;;;;;;;;;5010039;28;100338;-76
2022/03/27 10:04:59;;;;;;;7.20;4.50;;;;;;;;;;5010864;28;97868;-76
2022/03/27 10:07:26;;;;;;;7.38;4.68;;;;;;;;;;5010095;28;99236;-76
2022/03/27 10:09:53;;;;;;;7.90;4.43;;;;;;;;;;5009773;28;100631;-75
2022/03/27 10:12:25;;;;;;;7.82;4.78;;;;;;;;;;5013043;28;99266;-76
2022/03/27 10:14:53;;;;;;;7.30;4.27;;;;;;;;;;5011136;27;100158;-75
2022/03/27 10:17:20;;;;;;;8.25;5.13;;;;;;;;;;5010029;27;98576;-75
2022/03/27 10:19:52;;;;;;;7.53;4.60;;;;;;;;;;5010668;28;100512;-75
2022/03/27 10:22:23;;;;;;;6.03;4.57;;;;;;;;;;5009857;28;98602;-75
2022/03/27 10:24:51;;;;;;;9.85;4.40;;;;;;;;;;5009879;28;98644;-75
2022/03/27 10:27:22;;;;;;;;;;;;;;;;;;5010997;28;99213;-75
2022/03/27 10:29:48;;;;;;;9.27;4.35;;;;;;;;;;5010751;28;129905;-75
2022/03/27 10:32:14;;;;;;;8.98;3.97;;;;;;;;;;5009328;28;98573;-75
2022/03/27 10:34:50;;;;;;;8.40;4.72;;;;;;;;;;5012596;28;99945;-75
2022/03/27 10:37:23;;;;;;;10.82;4.43;;;;;;;;;;5010079;27;99265;-75
2022/03/27 10:39:49;;;;;;;;;;;;;;;;;;5010414;28;100009;-75
2022/03/27 10:42:19;;;;;;;5.75;4.20;;;;;;;;;;5010016;28;130795;-75
2022/03/27 10:44:55;;;;;;;3.28;2.38;;;;;;;;;;5007844;28;100003;-75
2022/03/27 10:47:23;;;;;;;2.80;2.25;;;;;;;;;;5008750;28;100273;-75
2022/03/27 10:50:02;;;;;;;6.22;3.38;;;;;;;;;;5009708;28;100369;-75
2022/03/27 10:52:30;;;;;;;6.22;3.15;;;;;;;;;;5009241;28;98611;-75
2022/03/27 10:55:01;;;;;;;6.00;1.85;;;;;;;;;;5010880;28;100252;-75
2022/03/27 10:57:29;;;;;;;6.20;3.10;;;;;;;;;;5012514;28;100418;-75
2022/03/27 10:59:55;;;;;;;4.18;2.45;;;;;;;;;;5008943;28;100083;-75
2022/03/27 11:02:40;;;;;;;4.47;2.63;;;;;;;;;;5007254;28;100869;-75
2022/03/27 11:05:07;;;;;;;5.22;2.47;;;;;;;;;;5010173;28;99336;-75
2022/03/27 11:07:33;;;;;;;4.40;2.47;;;;;;;;;;5009146;28;98993;-75
2022/03/27 11:10:00;;;;;;;5.13;2.83;;;;;;;;;;5009686;28;98957;-75
2022/03/27 11:12:28;;;;;;;4.25;2.35;;;;;;;;;;5009965;28;98542;-75
2022/03/27 11:14:59;;;;;;;4.57;2.75;;;;;;;;;;5009368;28;100019;-75
2022/03/27 11:17:28;;;;;;;5.05;3.63;;;;;;;;;;5009077;28;100447;-75
2022/03/27 11:19:55;;;;;;;8.43;3.28;;;;;;;;;;5013882;28;97805;-76
2022/03/27 11:22:40;;;;;;;6.90;3.58;;;;;;;;;;5006737;28;101015;-76
2022/03/27 11:25:22;;;;;;;5.35;2.97;;;;;;;;;;4989975;28;98720;-76
2022/03/27 11:27:56;;;;;;;7.85;3.53;;;;;;;;;;5000203;28;99998;-76
2022/03/27 11:30:22;;;;;;;5.13;2.80;;;;;;;;;;5011922;28;100320;-75
2022/03/27 11:33:24;;;;;;;7.55;3.50;;;;;;;;;;5029795;27;98521;-76
2022/03/27 11:36:14;;;;;;;5.22;2.78;;;;;;;;;;4993672;28;99013;-75
2022/03/27 11:38:54;;;;;;;7.85;3.28;;;;;;;;;;5000009;28;100706;-76
2022/03/27 11:41:42;;;;;;;6.80;3.38;;;;;;;;;;5008215;28;99147;-76
2022/03/27 11:44:22;;;;;;;5.30;3.05;;;;;;;;;;5011273;28;99120;-76
2022/03/27 11:46:52;;;;;;;10.43;3.67;;;;;;;;;;5009928;28;98266;-76
2022/03/27 11:49:20;;;;;;;7.50;3.10;;;;;;;;;;5008324;28;99472;-76
2022/03/27 11:51:46;;;;;;;5.97;3.40;;;;;;;;;;5007809;28;100331;-76
2022/03/27 11:54:20;;;;;;;7.35;3.50;;;;;;;;;;5008592;28;99258;-76
2022/03/27 11:56:59;;;;;;;5.13;2.78;;;;;;;;;;5008887;28;100837;-76
2022/03/27 11:59:26;;;;;;;9.63;3.42;;;;;;;;;;5008567;28;100184;-76
2022/03/27 12:01:53;;;;;;;5.95;3.45;;;;;;;;;;5009333;28;98556;-76
2022/03/27 12:04:20;;;;;;;8.30;3.30;;;;;;;;;;5010898;28;99767;-76
2022/03/27 12:06:53;;;;;;;6.53;3.45;;;;;;;;;;5008997;28;98681;-76
2022/03/27 12:09:24;;;;;;;9.55;4.18;;;;;;;;;;5009023;28;99290;-76
2022/03/27 12:12:02;;;;;;;10.82;4.25;;;;;;;;;;5008899;28;100216;-76
2022/03/27 12:14:29;;;;;;;6.32;3.95;;;;;;;;;;5008874;28;99691;-76
2022/03/27 12:16:55;;;;;;;9.48;4.70;;;;;;;;;;5004654;28;99898;-76
2022/03/27 12:19:22;;;;;;;8.65;4.18;;;;;;;;;;5002836;28;100752;-76
2022/03/27 12:21:48;;;;;;;7.53;4.15;;;;;;;;;;5008784;28;98628;-76
2022/03/27 12:24:20;;;;;;;6.60;3.53;;;;;;;;;;5008090;28;99968;-76
2022/03/27 12:29:40;;;;;;;7.07;3.67;;;;;;;;;;5008300;28;100177;-76
2022/03/27 12:32:06;;;;;;;10.93;4.82;;;;;;;;;;5007941;28;99354;-76
2022/03/27 12:34:33;;;;;;;10.52;4.47;;;;;;;;;;5008605;28;98506;-76
2022/03/27 12:37:11;;;;;;;10.57;4.35;;;;;;;;;;5008945;28;100109;-75
2022/03/27 12:39:38;;;;;;;11.35;4.38;;;;;;;;;;5007681;28;100475;-75
2022/03/27 12:42:06;;;;;;;9.52;4.20;;;;;;;;;;5008675;28;98570;-76
2022/03/27 12:44:46;;;;;;;12.55;4.53;;;;;;;;;;5005731;28;100528;-74
2022/03/27 12:47:12;;;;;;;8.18;3.30;;;;;;;;;;4997163;28;99688;-74
2022/03/27 12:49:51;;;;;;;7.00;4.28;;;;;;;;;;5000242;28;98691;-74
2022/03/27 12:52:17;;;;;;;11.60;4.32;;;;;;;;;;5006501;28;99864;-74
2022/03/27 12:54:55;;;;;;;9.40;3.65;;;;;;;;;;5008043;28;98572;-74
2022/03/27 12:57:22;;;;;;;13.02;4.28;;;;;;;;;;5006025;28;100097;-74
2022/03/27 12:59:48;;;;;;;11.88;4.68;;;;;;;;;;5008157;28;99987;-74
2022/03/27 13:02:25;;;;;;;8.57;4.55;;;;;;;;;;5008738;28;97848;-74
2022/03/27 13:05:00;;;;;;;5.75;3.60;;;;;;;;;;5007703;28;98859;-75
2022/03/27 13:07:45;;;;;;;12.50;3.80;;;;;;;;;;5007501;28;99504;-74
2022/03/27 13:10:11;;;;;;;9.38;4.05;;;;;;;;;;5011116;28;99325;-75
2022/03/27 13:12:38;;;;;;;10.25;3.90;;;;;;;;;;5010820;28;99809;-75
2022/03/27 13:15:04;;;;;;;8.73;3.72;;;;;;;;;;5011004;28;98598;-72
2022/03/27 13:17:31;;;;;;;8.98;3.85;;;;;;;;;;5010885;28;99124;-74
2022/03/27 13:19:57;;;;;;;9.77;4.20;;;;;;;;;;5009561;28;100142;-74
2022/03/27 13:22:24;;;;;;;11.95;4.10;;;;;;;;;;5001614;28;98614;-74
2022/03/27 13:24:50;;;;;;;14.80;4.05;;;;;;;;;;5010114;28;98873;-73
2022/03/27 13:27:17;;;;;;;9.43;3.78;;;;;;;;;;5007247;28;99410;-74
2022/03/27 13:29:43;;;;;;;11.80;3.50;;;;;;;;;;5010062;28;98549;-73
2022/03/27 13:32:09;;;;;;;13.05;3.60;;;;;;;;;;5002858;28;99972;-75
2022/03/27 13:34:37;;;;;;;8.52;3.92;;;;;;;;;;5008270;28;101455;-73
2022/03/27 13:37:03;;;;;;;11.30;4.15;;;;;;;;;;5008042;28;100170;-73
2022/03/27 13:39:30;;;;;;;9.27;3.58;;;;;;;;;;5009100;28;100458;-73
2022/03/27 13:44:42;;;;;;;10.32;2.90;;;;;;;;;;5011415;28;100250;-73
2022/03/27 13:47:11;;;;;;;7.93;3.72;;;;;;;;;;5008650;28;99542;-73
2022/03/27 13:49:38;;;;;;;8.95;4.20;;;;;;;;;;5007997;28;98991;-73
2022/03/27 13:52:04;;;;;;;11.23;3.90;;;;;;;;;;5009898;28;99776;-73
2022/03/27 13:54:31;;;;;;;7.78;3.45;;;;;;;;;;5007491;28;99499;-73
2022/03/27 13:56:57;;;;;;;10.73;4.00;;;;;;;;;;5013527;28;98921;-73
2022/03/27 13:59:23;;;;;;;11.43;4.20;;;;;;;;;;5007487;28;101178;-73
2022/03/27 14:01:51;;;;;;;12.60;3.75;;;;;;;;;;5010157;28;98526;-73
2022/03/27 14:04:18;;;;;;;13.63;4.30;;;;;;;;;;5009286;28;99244;-74
2022/03/27 14:06:45;;;;;;;14.65;4.47;;;;;;;;;;5010506;28;100339;-74
2022/03/27 14:09:11;;;;;;;7.65;3.25;;;;;;;;;;5004676;28;99163;-74
2022/03/27 14:11:39;;;;;;;11.88;4.20;;;;;;;;;;5006974;28;100104;-74
2022/03/27 14:14:06;;;;;;;18.35;4.13;;;;;;;;;;5008928;28;100154;-74
2022/03/27 14:16:34;;;;;;;9.10;3.60;;;;;;;;;;5013593;28;97804;-73
2022/03/27 14:19:00;;;;;;;9.38;4.35;;;;;;;;;;5009128;28;99401;-73
2022/03/27 14:21:28;;;;;;;10.85;3.90;;;;;;;;;;5002864;28;98714;-74
2022/03/27 14:23:54;;;;;;;13.25;4.38;;;;;;;;;;4995533;28;100672;-74
2022/03/27 14:26:20;;;;;;;14.50;4.13;;;;;;;;;;5009756;28;100264;-74
2022/03/27 14:28:47;;;;;;;14.85;4.68;;;;;;;;;;5009577;28;98558;-74
2022/03/27 14:31:13;;;;;;;13.02;4.28;;;;;;;;;;5007746;28;100190;-74
2022/03/27 14:33:40;;;;;;;12.23;4.35;;;;;;;;;;5010272;28;99471;-74
2022/03/27 14:36:06;;;;;;;14.80;4.78;;;;;;;;;;5009564;28;98605;-74
2022/03/27 14:38:32;;;;;;;12.02;3.35;;;;;;;;;;5010877;28;101037;-73
2022/03/27 14:41:02;;;;;;;15.68;4.10;;;;;;;;;;5010180;28;97779;-73
2022/03/27 14:43:28;;;;;;;13.18;5.00;;;;;;;;;;5009166;28;99264;-74